sensor_id;sensor_type;location;lat;lon;timestamp;pressure;altitude;pressure_sealevel;temperature;humidity
73501;BME280;61721;42.206;25.320;2024-01-15T00:00:25;99075.53;;;-0.73;58.75
73501;BME280;61721;42.206;25.320;2024-01-15T00:02:53;99068.72;;;-0.68;58.54
73501;BME280;61721;42.206;25.320;2024-01-15T00:05:20;99075.66;;;-0.83;58.94
73501;BME280;61721;42.206;25.320;2024-01-15T00:07:49;99071.25;;;-0.92;58.92
73501;BME280;61721;42.206;25.320;2024-01-15T00:10:16;99070.22;;;-0.31;58.23
73501;BME280;61721;42.206;25.320;2024-01-15T00:12:44;99068.16;;;-0.80;58.27
73501;BME280;61721;42.206;25.320;2024-01-15T00:15:11;99074.84;;;-0.42;57.93
73501;BME280;61721;42.206;25.320;2024-01-15T00:17:38;99077.41;;;-0.66;57.98
73501;BME280;61721;42.206;25.320;2024-01-15T00:20:14;99082.81;;;-0.58;57.83
73501;BME280;61721;42.206;25.320;2024-01-15T00:22:49;99073.47;;;-0.88;59.25
73501;BME280;61721;42.206;25.320;2024-01-15T00:25:16;99079.84;;;-1.06;59.04
73501;BME280;61721;42.206;25.320;2024-01-15T00:27:44;99089.31;;;-1.12;59.46
73501;BME280;61721;42.206;25.320;2024-01-15T00:30:12;99078.78;;;-1.14;59.72
73501;BME280;61721;42.206;25.320;2024-01-15T00:32:40;99079.53;;;-1.03;59.90
73501;BME280;61721;42.206;25.320;2024-01-15T00:35:07;99069.19;;;-1.06;60.10
73501;BME280;61721;42.206;25.320;2024-01-15T00:37:35;99081.09;;;-1.19;60.40
73501;BME280;61721;42.206;25.320;2024-01-15T00:40:05;99064.34;;;-1.03;60.09
73501;BME280;61721;42.206;25.320;2024-01-15T00:42:33;99067.81;;;-1.10;60.06
73501;BME280;61721;42.206;25.320;2024-01-15T00:45:01;99080.38;;;-0.77;59.27
73501;BME280;61721;42.206;25.320;2024-01-15T00:47:28;99071.69;;;-0.79;58.96
73501;BME280;61721;42.206;25.320;2024-01-15T00:49:55;99071.66;;;-1.05;59.97
73501;BME280;61721;42.206;25.320;2024-01-15T00:52:23;99072.00;;;-1.08;59.59
73501;BME280;61721;42.206;25.320;2024-01-15T00:54:50;99067.91;;;-0.94;59.42
73501;BME280;61721;42.206;25.320;2024-01-15T00:57:19;99068.78;;;-1.12;60.05
73501;BME280;61721;42.206;25.320;2024-01-15T00:59:47;99063.94;;;-0.90;59.58
73501;BME280;61721;42.206;25.320;2024-01-15T01:02:14;99073.75;;;-0.65;58.91
73501;BME280;61721;42.206;25.320;2024-01-15T01:04:41;99067.78;;;-0.59;58.64
73501;BME280;61721;42.206;25.320;2024-01-15T01:07:09;99064.94;;;-0.91;59.22
73501;BME280;61721;42.206;25.320;2024-01-15T01:09:36;99061.72;;;-0.95;59.73
73501;BME280;61721;42.206;25.320;2024-01-15T01:12:03;99055.84;;;-0.72;59.42
73501;BME280;61721;42.206;25.320;2024-01-15T01:14:32;99055.41;;;-0.60;59.07
73501;BME280;61721;42.206;25.320;2024-01-15T01:17:00;99055.72;;;-0.63;58.90
73501;BME280;61721;42.206;25.320;2024-01-15T01:19:27;99054.72;;;-0.96;59.79
73501;BME280;61721;42.206;25.320;2024-01-15T01:22:03;99059.56;;;-1.43;61.21
73501;BME280;61721;42.206;25.320;2024-01-15T01:24:31;99048.13;;;-1.09;60.57
73501;BME280;61721;42.206;25.320;2024-01-15T01:26:58;99057.63;;;-0.81;60.50
73501;BME280;61721;42.206;25.320;2024-01-15T01:29:25;99054.59;;;-0.86;59.79
73501;BME280;61721;42.206;25.320;2024-01-15T01:31:55;99060.06;;;-1.22;60.89
73501;BME280;61721;42.206;25.320;2024-01-15T01:34:22;99047.88;;;-0.98;60.59
73501;BME280;61721;42.206;25.320;2024-01-15T01:36:49;99048.59;;;-0.54;59.85
73501;BME280;61721;42.206;25.320;2024-01-15T01:39:17;99058.63;;;0.10;58.23
73501;BME280;61721;42.206;25.320;2024-01-15T01:41:44;99061.25;;;-0.14;57.85
73501;BME280;61721;42.206;25.320;2024-01-15T01:44:11;99054.97;;;-0.81;59.60
73501;BME280;61721;42.206;25.320;2024-01-15T01:46:39;99047.91;;;-0.90;60.31
73501;BME280;61721;42.206;25.320;2024-01-15T01:49:09;99047.28;;;-1.10;60.88
73501;BME280;61721;42.206;25.320;2024-01-15T01:51:38;99049.31;;;-0.78;60.32
73501;BME280;61721;42.206;25.320;2024-01-15T01:54:06;99047.00;;;-1.25;61.10
73501;BME280;61721;42.206;25.320;2024-01-15T01:56:35;99036.69;;;-1.28;60.94
73501;BME280;61721;42.206;25.320;2024-01-15T01:59:02;99031.34;;;-1.28;61.02
73501;BME280;61721;42.206;25.320;2024-01-15T02:01:31;99033.16;;;-1.54;61.43
73501;BME280;61721;42.206;25.320;2024-01-15T02:03:59;99030.84;;;-1.49;61.50
73501;BME280;61721;42.206;25.320;2024-01-15T02:06:28;99033.66;;;-1.51;60.80
73501;BME280;61721;42.206;25.320;2024-01-15T02:08:55;99030.63;;;-1.56;60.69
73501;BME280;61721;42.206;25.320;2024-01-15T02:11:23;99021.59;;;-1.37;60.18
73501;BME280;61721;42.206;25.320;2024-01-15T02:13:51;99024.06;;;-1.61;60.14
73501;BME280;61721;42.206;25.320;2024-01-15T02:16:18;99019.25;;;-1.83;60.57
73501;BME280;61721;42.206;25.320;2024-01-15T02:18:46;99019.84;;;-1.90;61.12
73501;BME280;61721;42.206;25.320;2024-01-15T02:21:13;99025.22;;;-1.46;60.51
73501;BME280;61721;42.206;25.320;2024-01-15T02:23:42;99024.13;;;-1.53;60.51
73501;BME280;61721;42.206;25.320;2024-01-15T02:26:09;99021.31;;;-1.52;60.38
73501;BME280;61721;42.206;25.320;2024-01-15T02:28:37;99012.31;;;-1.51;60.53
73501;BME280;61721;42.206;25.320;2024-01-15T02:31:04;99014.09;;;-1.33;60.08
73501;BME280;61721;42.206;25.320;2024-01-15T02:33:31;99013.53;;;-1.19;60.06
73501;BME280;61721;42.206;25.320;2024-01-15T02:35:59;99010.97;;;-1.29;59.86
73501;BME280;61721;42.206;25.320;2024-01-15T02:38:26;99008.31;;;-1.72;61.58
73501;BME280;61721;42.206;25.320;2024-01-15T02:40:55;99016.97;;;-1.35;60.53
73501;BME280;61721;42.206;25.320;2024-01-15T02:43:22;99019.00;;;-1.90;61.57
73501;BME280;61721;42.206;25.320;2024-01-15T02:45:50;99018.56;;;-1.42;61.10
73501;BME280;61721;42.206;25.320;2024-01-15T02:48:17;99015.78;;;-1.32;60.68
73501;BME280;61721;42.206;25.320;2024-01-15T02:50:45;99013.78;;;-1.56;61.22
73501;BME280;61721;42.206;25.320;2024-01-15T02:53:12;99012.31;;;-1.76;61.49
73501;BME280;61721;42.206;25.320;2024-01-15T02:55:40;99007.91;;;-2.03;62.27
73501;BME280;61721;42.206;25.320;2024-01-15T02:58:09;99020.06;;;-2.01;62.27
73501;BME280;61721;42.206;25.320;2024-01-15T03:00:36;99017.31;;;-2.09;62.42
73501;BME280;61721;42.206;25.320;2024-01-15T03:03:03;99016.63;;;-2.29;62.96
73501;BME280;61721;42.206;25.320;2024-01-15T03:05:31;99021.22;;;-2.03;62.18
73501;BME280;61721;42.206;25.320;2024-01-15T03:07:58;99022.00;;;-1.93;61.23
73501;BME280;61721;42.206;25.320;2024-01-15T03:10:26;99006.22;;;-1.87;61.13
73501;BME280;61721;42.206;25.320;2024-01-15T03:12:53;99005.06;;;-1.84;61.44
73501;BME280;61721;42.206;25.320;2024-01-15T03:15:22;99003.41;;;-2.03;61.78
73501;BME280;61721;42.206;25.320;2024-01-15T03:17:49;98998.81;;;-2.10;61.98
73501;BME280;61721;42.206;25.320;2024-01-15T03:20:17;99000.50;;;-2.09;62.13
73501;BME280;61721;42.206;25.320;2024-01-15T03:22:44;98999.88;;;-2.21;62.56
73501;BME280;61721;42.206;25.320;2024-01-15T03:25:12;98993.75;;;-2.04;62.32
73501;BME280;61721;42.206;25.320;2024-01-15T03:27:39;98996.69;;;-2.07;62.19
73501;BME280;61721;42.206;25.320;2024-01-15T03:30:07;99010.88;;;-2.24;62.17
73501;BME280;61721;42.206;25.320;2024-01-15T03:32:36;99019.97;;;-2.27;62.40
73501;BME280;61721;42.206;25.320;2024-01-15T03:35:04;99020.69;;;-2.07;62.02
73501;BME280;61721;42.206;25.320;2024-01-15T03:37:32;99015.66;;;-2.10;61.75
73501;BME280;61721;42.206;25.320;2024-01-15T03:39:59;99022.56;;;-1.81;61.05
73501;BME280;61721;42.206;25.320;2024-01-15T03:42:27;99023.63;;;-2.10;61.99
73501;BME280;61721;42.206;25.320;2024-01-15T03:44:54;99008.00;;;-1.69;61.90
73501;BME280;61721;42.206;25.320;2024-01-15T03:47:22;99018.72;;;-2.05;62.10
73501;BME280;61721;42.206;25.320;2024-01-15T03:49:50;99014.84;;;-2.55;62.82
73501;BME280;61721;42.206;25.320;2024-01-15T03:52:18;99011.00;;;-2.08;62.25
73501;BME280;61721;42.206;25.320;2024-01-15T03:54:45;99000.25;;;-1.80;61.53
73501;BME280;61721;42.206;25.320;2024-01-15T03:57:12;99004.25;;;-2.02;61.92
73501;BME280;61721;42.206;25.320;2024-01-15T03:59:40;99005.09;;;-2.65;63.47
73501;BME280;61721;42.206;25.320;2024-01-15T04:02:08;99001.84;;;-2.86;64.41
73501;BME280;61721;42.206;25.320;2024-01-15T04:04:35;99015.00;;;-2.39;64.45
73501;BME280;61721;42.206;25.320;2024-01-15T04:07:04;99005.28;;;-1.77;61.51
73501;BME280;61721;42.206;25.320;2024-01-15T04:09:31;99006.09;;;-2.48;63.50
73501;BME280;61721;42.206;25.320;2024-01-15T04:11:59;99005.75;;;-2.35;63.34
73501;BME280;61721;42.206;25.320;2024-01-15T04:14:26;99012.31;;;-2.12;62.64
73501;BME280;61721;42.206;25.320;2024-01-15T04:16:54;99019.00;;;-2.08;62.19
73501;BME280;61721;42.206;25.320;2024-01-15T04:19:21;99011.69;;;-2.06;62.42
73501;BME280;61721;42.206;25.320;2024-01-15T04:21:49;99011.16;;;-2.27;62.76
73501;BME280;61721;42.206;25.320;2024-01-15T04:24:17;99014.16;;;-1.95;62.13
73501;BME280;61721;42.206;25.320;2024-01-15T04:26:45;99010.78;;;-2.32;62.49
73501;BME280;61721;42.206;25.320;2024-01-15T04:29:12;99006.88;;;-2.38;62.79
73501;BME280;61721;42.206;25.320;2024-01-15T04:31:40;99015.44;;;-2.62;63.33
73501;BME280;61721;42.206;25.320;2024-01-15T04:34:07;99009.13;;;-2.60;63.19
73501;BME280;61721;42.206;25.320;2024-01-15T04:36:38;99001.59;;;-2.65;63.31
73501;BME280;61721;42.206;25.320;2024-01-15T04:39:06;98993.06;;;-2.23;62.36
73501;BME280;61721;42.206;25.320;2024-01-15T04:41:35;99002.66;;;-2.13;62.46
73501;BME280;61721;42.206;25.320;2024-01-15T04:44:03;98991.38;;;-2.07;62.13
73501;BME280;61721;42.206;25.320;2024-01-15T04:46:30;98996.00;;;-2.44;62.75
73501;BME280;61721;42.206;25.320;2024-01-15T04:48:57;98999.66;;;-2.45;63.11
73501;BME280;61721;42.206;25.320;2024-01-15T04:51:25;99008.34;;;-2.26;62.71
73501;BME280;61721;42.206;25.320;2024-01-15T04:53:52;99000.34;;;-2.43;63.27
73501;BME280;61721;42.206;25.320;2024-01-15T04:56:19;99000.13;;;-2.32;62.88
73501;BME280;61721;42.206;25.320;2024-01-15T04:58:48;99000.28;;;-2.16;62.50
73501;BME280;61721;42.206;25.320;2024-01-15T05:01:16;98994.66;;;-2.13;62.72
73501;BME280;61721;42.206;25.320;2024-01-15T05:03:43;98995.56;;;-2.22;62.57
73501;BME280;61721;42.206;25.320;2024-01-15T05:06:10;98990.50;;;-2.60;63.13
73501;BME280;61721;42.206;25.320;2024-01-15T05:08:37;98989.25;;;-2.66;63.36
73501;BME280;61721;42.206;25.320;2024-01-15T05:11:05;98987.38;;;-2.56;63.39
73501;BME280;61721;42.206;25.320;2024-01-15T05:13:32;98987.59;;;-2.49;63.90
73501;BME280;61721;42.206;25.320;2024-01-15T05:16:01;98989.28;;;-2.48;63.77
73501;BME280;61721;42.206;25.320;2024-01-15T05:18:29;98993.13;;;-2.33;63.39
73501;BME280;61721;42.206;25.320;2024-01-15T05:20:56;98991.59;;;-2.18;62.49
73501;BME280;61721;42.206;25.320;2024-01-15T05:23:23;98983.66;;;-2.10;62.31
73501;BME280;61721;42.206;25.320;2024-01-15T05:25:51;98971.81;;;-2.33;62.84
73501;BME280;61721;42.206;25.320;2024-01-15T05:28:18;98969.38;;;-2.44;63.50
73501;BME280;61721;42.206;25.320;2024-01-15T05:30:45;98956.25;;;-2.55;63.33
73501;BME280;61721;42.206;25.320;2024-01-15T05:33:14;98949.09;;;-2.73;63.97
73501;BME280;61721;42.206;25.320;2024-01-15T05:35:42;98942.19;;;-2.66;63.88
73501;BME280;61721;42.206;25.320;2024-01-15T05:38:09;98945.09;;;-2.41;63.54
73501;BME280;61721;42.206;25.320;2024-01-15T05:40:37;98951.34;;;-2.33;63.12
73501;BME280;61721;42.206;25.320;2024-01-15T05:43:04;98942.28;;;-2.22;63.40
73501;BME280;61721;42.206;25.320;2024-01-15T05:45:34;98946.59;;;-2.39;63.20
73501;BME280;61721;42.206;25.320;2024-01-15T05:48:01;98957.03;;;-2.10;62.57
73501;BME280;61721;42.206;25.320;2024-01-15T05:50:31;98967.41;;;-1.37;61.54
73501;BME280;61721;42.206;25.320;2024-01-15T05:52:58;98962.13;;;-2.16;61.90
73501;BME280;61721;42.206;25.320;2024-01-15T05:55:25;98963.81;;;-2.15;62.25
73501;BME280;61721;42.206;25.320;2024-01-15T05:57:53;98959.91;;;-1.85;62.09
73501;BME280;61721;42.206;25.320;2024-01-15T06:00:20;98963.19;;;-2.27;61.36
73501;BME280;61721;42.206;25.320;2024-01-15T06:02:48;98953.22;;;-3.15;65.21
73501;BME280;61721;42.206;25.320;2024-01-15T06:05:15;98947.97;;;-3.25;65.59
73501;BME280;61721;42.206;25.320;2024-01-15T06:07:44;98959.56;;;-3.63;66.32
73501;BME280;61721;42.206;25.320;2024-01-15T06:10:11;98956.22;;;-3.75;67.25
73501;BME280;61721;42.206;25.320;2024-01-15T06:12:39;98951.50;;;-3.90;68.32
73501;BME280;61721;42.206;25.320;2024-01-15T06:15:06;98947.91;;;-3.15;66.92
73501;BME280;61721;42.206;25.320;2024-01-15T06:17:34;98944.34;;;-3.33;67.92
73501;BME280;61721;42.206;25.320;2024-01-15T06:20:01;98939.50;;;-2.66;67.03
73501;BME280;61721;42.206;25.320;2024-01-15T06:22:29;98935.97;;;-3.02;68.14
73501;BME280;61721;42.206;25.320;2024-01-15T06:24:58;98930.84;;;-2.68;68.69
73501;BME280;61721;42.206;25.320;2024-01-15T06:27:25;98927.38;;;-2.50;68.11
73501;BME280;61721;42.206;25.320;2024-01-15T06:29:52;98943.25;;;-2.58;68.77
73501;BME280;61721;42.206;25.320;2024-01-15T06:32:21;98943.34;;;-2.15;68.00
73501;BME280;61721;42.206;25.320;2024-01-15T06:34:50;98958.00;;;-2.64;68.52
73501;BME280;61721;42.206;25.320;2024-01-15T06:37:17;98961.16;;;-2.33;67.97
73501;BME280;61721;42.206;25.320;2024-01-15T06:39:46;98976.59;;;-2.01;66.71
73501;BME280;61721;42.206;25.320;2024-01-15T06:42:15;98977.00;;;-1.70;66.37
73501;BME280;61721;42.206;25.320;2024-01-15T06:44:42;98983.81;;;-0.98;63.85
73501;BME280;61721;42.206;25.320;2024-01-15T06:47:10;98970.72;;;-1.09;63.87
73501;BME280;61721;42.206;25.320;2024-01-15T06:49:37;98971.69;;;-1.19;64.33
73501;BME280;61721;42.206;25.320;2024-01-15T06:52:05;98971.41;;;-1.07;63.73
73501;BME280;61721;42.206;25.320;2024-01-15T06:54:33;98964.66;;;-1.20;63.55
73501;BME280;61721;42.206;25.320;2024-01-15T06:57:00;98955.19;;;-1.14;63.63
73501;BME280;61721;42.206;25.320;2024-01-15T06:59:29;98942.91;;;-1.07;63.62
73501;BME280;61721;42.206;25.320;2024-01-15T07:01:56;98938.56;;;-0.58;62.85
73501;BME280;61721;42.206;25.320;2024-01-15T07:04:25;98934.00;;;-0.65;63.14
73501;BME280;61721;42.206;25.320;2024-01-15T07:06:52;98940.63;;;-0.03;61.97
73501;BME280;61721;42.206;25.320;2024-01-15T07:09:19;98957.66;;;0.45;60.97
73501;BME280;61721;42.206;25.320;2024-01-15T07:11:47;98949.81;;;0.27;60.81
73501;BME280;61721;42.206;25.320;2024-01-15T07:14:14;98948.47;;;0.15;61.40
73501;BME280;61721;42.206;25.320;2024-01-15T07:16:43;98965.69;;;0.12;61.53
73501;BME280;61721;42.206;25.320;2024-01-15T07:19:10;98977.06;;;0.06;61.40
73501;BME280;61721;42.206;25.320;2024-01-15T07:21:37;98965.69;;;0.45;60.66
73501;BME280;61721;42.206;25.320;2024-01-15T07:24:05;98963.00;;;0.20;61.27
73501;BME280;61721;42.206;25.320;2024-01-15T07:26:33;98984.44;;;0.36;60.98
73501;BME280;61721;42.206;25.320;2024-01-15T07:29:00;98965.34;;;0.56;60.67
73501;BME280;61721;42.206;25.320;2024-01-15T07:31:29;98961.69;;;0.16;61.26
73501;BME280;61721;42.206;25.320;2024-01-15T07:33:57;98950.31;;;0.22;61.85
73501;BME280;61721;42.206;25.320;2024-01-15T07:36:25;98944.31;;;-0.04;62.30
73501;BME280;61721;42.206;25.320;2024-01-15T07:38:53;98939.13;;;-0.06;62.73
73501;BME280;61721;42.206;25.320;2024-01-15T07:41:20;98944.81;;;0.16;62.60
73501;BME280;61721;42.206;25.320;2024-01-15T07:43:49;98948.31;;;0.24;62.68
73501;BME280;61721;42.206;25.320;2024-01-15T07:46:16;98938.91;;;0.53;61.83
73501;BME280;61721;42.206;25.320;2024-01-15T07:48:44;98940.50;;;0.78;61.60
73501;BME280;61721;42.206;25.320;2024-01-15T07:51:12;98933.69;;;0.67;61.26
73501;BME280;61721;42.206;25.320;2024-01-15T07:53:40;98944.19;;;1.55;59.60
73501;BME280;61721;42.206;25.320;2024-01-15T07:56:07;98940.00;;;1.30;59.57
73501;BME280;61721;42.206;25.320;2024-01-15T07:58:34;98938.59;;;1.42;59.46
73501;BME280;61721;42.206;25.320;2024-01-15T08:01:02;98935.81;;;1.58;59.10
73501;BME280;61721;42.206;25.320;2024-01-15T08:03:29;98931.47;;;1.57;59.46
73501;BME280;61721;42.206;25.320;2024-01-15T08:05:56;98945.34;;;1.83;59.11
73501;BME280;61721;42.206;25.320;2024-01-15T08:08:26;98943.66;;;1.91;58.89
73501;BME280;61721;42.206;25.320;2024-01-15T08:10:54;98947.47;;;2.19;57.93
73501;BME280;61721;42.206;25.320;2024-01-15T08:13:21;98952.75;;;2.65;57.23
73501;BME280;61721;42.206;25.320;2024-01-15T08:15:49;98958.31;;;2.78;56.59
73501;BME280;61721;42.206;25.320;2024-01-15T08:18:17;98954.94;;;2.46;57.45
73501;BME280;61721;42.206;25.320;2024-01-15T08:20:44;98953.41;;;2.81;58.56
73501;BME280;61721;42.206;25.320;2024-01-15T08:23:12;98956.75;;;2.69;59.62
73501;BME280;61721;42.206;25.320;2024-01-15T08:25:41;98963.50;;;2.04;61.30
73501;BME280;61721;42.206;25.320;2024-01-15T08:28:08;98964.19;;;1.75;62.68
73501;BME280;61721;42.206;25.320;2024-01-15T08:30:35;98968.69;;;1.52;63.47
73501;BME280;61721;42.206;25.320;2024-01-15T08:33:03;98961.56;;;0.89;66.00
73501;BME280;61721;42.206;25.320;2024-01-15T08:35:31;98956.63;;;1.17;65.71
73501;BME280;61721;42.206;25.320;2024-01-15T08:37:58;98960.16;;;1.09;65.70
73501;BME280;61721;42.206;25.320;2024-01-15T08:40:26;98963.34;;;1.52;64.92
73501;BME280;61721;42.206;25.320;2024-01-15T08:42:55;98957.75;;;1.31;64.90
73501;BME280;61721;42.206;25.320;2024-01-15T08:45:24;98951.41;;;1.24;64.83
73501;BME280;61721;42.206;25.320;2024-01-15T08:47:52;98949.78;;;1.76;63.60
73501;BME280;61721;42.206;25.320;2024-01-15T08:50:19;98941.09;;;2.35;62.15
73501;BME280;61721;42.206;25.320;2024-01-15T08:52:46;98947.56;;;2.03;63.13
73501;BME280;61721;42.206;25.320;2024-01-15T08:55:14;98954.97;;;1.47;63.78
73501;BME280;61721;42.206;25.320;2024-01-15T08:57:41;98958.09;;;1.28;65.28
73501;BME280;61721;42.206;25.320;2024-01-15T09:00:11;98953.25;;;1.54;66.08
73501;BME280;61721;42.206;25.320;2024-01-15T09:02:39;98940.91;;;1.99;64.08
73501;BME280;61721;42.206;25.320;2024-01-15T09:05:07;98949.56;;;2.09;63.43
73501;BME280;61721;42.206;25.320;2024-01-15T09:07:34;98942.69;;;2.06;64.20
73501;BME280;61721;42.206;25.320;2024-01-15T09:10:01;98952.69;;;2.35;63.70
73501;BME280;61721;42.206;25.320;2024-01-15T09:12:29;98958.78;;;2.29;63.42
73501;BME280;61721;42.206;25.320;2024-01-15T09:14:56;98955.88;;;2.16;64.58
73501;BME280;61721;42.206;25.320;2024-01-15T09:17:25;98947.22;;;1.83;64.65
73501;BME280;61721;42.206;25.320;2024-01-15T09:19:54;98940.31;;;1.89;64.04
73501;BME280;61721;42.206;25.320;2024-01-15T09:22:21;98925.47;;;2.01;64.45
73501;BME280;61721;42.206;25.320;2024-01-15T09:24:49;98921.84;;;2.31;62.75
73501;BME280;61721;42.206;25.320;2024-01-15T09:27:16;98927.75;;;2.27;62.38
73501;BME280;61721;42.206;25.320;2024-01-15T09:29:44;98913.06;;;2.37;63.37
73501;BME280;61721;42.206;25.320;2024-01-15T09:32:11;98908.31;;;2.77;62.08
73501;BME280;61721;42.206;25.320;2024-01-15T09:34:41;98909.72;;;2.87;62.67
73501;BME280;61721;42.206;25.320;2024-01-15T09:37:08;98902.47;;;3.39;61.19
73501;BME280;61721;42.206;25.320;2024-01-15T09:39:35;98899.59;;;2.75;61.50
73501;BME280;61721;42.206;25.320;2024-01-15T09:42:03;98891.41;;;3.12;60.94
73501;BME280;61721;42.206;25.320;2024-01-15T09:44:31;98887.16;;;2.44;62.34
73501;BME280;61721;42.206;25.320;2024-01-15T09:47:05;98893.84;;;3.07;60.86
73501;BME280;61721;42.206;25.320;2024-01-15T09:49:33;98900.25;;;2.77;62.32
73501;BME280;61721;42.206;25.320;2024-01-15T09:52:02;98881.66;;;2.23;63.36
73501;BME280;61721;42.206;25.320;2024-01-15T09:54:30;98874.00;;;2.20;63.69
73501;BME280;61721;42.206;25.320;2024-01-15T09:56:58;98870.31;;;2.80;61.57
73501;BME280;61721;42.206;25.320;2024-01-15T09:59:27;98853.56;;;2.34;62.24
73501;BME280;61721;42.206;25.320;2024-01-15T10:01:55;98858.91;;;3.07;61.81
73501;BME280;61721;42.206;25.320;2024-01-15T10:04:24;98867.06;;;2.99;60.61
73501;BME280;61721;42.206;25.320;2024-01-15T10:06:51;98860.88;;;2.54;61.88
73501;BME280;61721;42.206;25.320;2024-01-15T10:09:21;98846.63;;;2.69;62.14
73501;BME280;61721;42.206;25.320;2024-01-15T10:11:48;98833.91;;;2.92;60.98
73501;BME280;61721;42.206;25.320;2024-01-15T10:14:16;98836.03;;;3.96;58.91
73501;BME280;61721;42.206;25.320;2024-01-15T10:16:43;98837.53;;;4.27;58.10
73501;BME280;61721;42.206;25.320;2024-01-15T10:19:10;98821.78;;;3.75;58.91
73501;BME280;61721;42.206;25.320;2024-01-15T10:21:38;98815.28;;;4.46;57.29
73501;BME280;61721;42.206;25.320;2024-01-15T10:24:08;98816.16;;;3.97;57.24
73501;BME280;61721;42.206;25.320;2024-01-15T10:26:37;98812.97;;;4.77;56.80
73501;BME280;61721;42.206;25.320;2024-01-15T10:29:04;98803.63;;;4.39;56.85
73501;BME280;61721;42.206;25.320;2024-01-15T10:31:32;98795.28;;;5.16;55.30
73501;BME280;61721;42.206;25.320;2024-01-15T10:34:10;98798.81;;;4.28;56.42
73501;BME280;61721;42.206;25.320;2024-01-15T10:36:42;98784.69;;;5.08;55.72
73501;BME280;61721;42.206;25.320;2024-01-15T10:39:13;98782.50;;;5.57;55.22
73501;BME280;61721;42.206;25.320;2024-01-15T10:41:43;98790.88;;;6.02;52.85
73501;BME280;61721;42.206;25.320;2024-01-15T10:44:10;98786.09;;;6.24;52.96
73501;BME280;61721;42.206;25.320;2024-01-15T10:46:38;98786.69;;;6.32;52.28
73501;BME280;61721;42.206;25.320;2024-01-15T10:49:07;98774.94;;;5.07;53.83
73501;BME280;61721;42.206;25.320;2024-01-15T10:51:35;98770.72;;;4.84;54.26
73501;BME280;61721;42.206;25.320;2024-01-15T10:54:03;98771.31;;;4.39;56.55
73501;BME280;61721;42.206;25.320;2024-01-15T10:56:32;98768.06;;;4.50;56.24
73501;BME280;61721;42.206;25.320;2024-01-15T10:59:02;98758.06;;;5.99;54.14
73501;BME280;61721;42.206;25.320;2024-01-15T11:01:30;98768.34;;;6.61;52.36
73501;BME280;61721;42.206;25.320;2024-01-15T11:04:06;98772.63;;;6.82;50.90
73501;BME280;61721;42.206;25.320;2024-01-15T11:06:42;98762.59;;;5.72;53.32
73501;BME280;61721;42.206;25.320;2024-01-15T11:09:10;98758.63;;;5.68;54.13
73501;BME280;61721;42.206;25.320;2024-01-15T11:11:41;98748.53;;;7.18;51.48
73501;BME280;61721;42.206;25.320;2024-01-15T11:14:10;98741.19;;;6.87;50.83
73501;BME280;61721;42.206;25.320;2024-01-15T11:16:55;98743.06;;;7.25;49.82
73501;BME280;61721;42.206;25.320;2024-01-15T11:19:25;98746.84;;;8.05;48.48
73501;BME280;61721;42.206;25.320;2024-01-15T11:21:53;98743.22;;;6.98;48.92
73501;BME280;61721;42.206;25.320;2024-01-15T11:24:35;98745.63;;;7.13;49.88
73501;BME280;61721;42.206;25.320;2024-01-15T11:27:03;98736.81;;;6.28;51.38
73501;BME280;61721;42.206;25.320;2024-01-15T11:29:33;98739.19;;;7.45;49.96
73501;BME280;61721;42.206;25.320;2024-01-15T11:32:05;98742.78;;;9.23;47.56
73501;BME280;61721;42.206;25.320;2024-01-15T11:34:56;98729.22;;;7.96;46.99
73501;BME280;61721;42.206;25.320;2024-01-15T11:37:28;98721.63;;;8.84;47.67
73501;BME280;61721;42.206;25.320;2024-01-15T11:39:56;98705.72;;;9.17;45.31
73501;BME280;61721;42.206;25.320;2024-01-15T11:42:29;98707.25;;;8.95;45.39
73501;BME280;61721;42.206;25.320;2024-01-15T11:44:59;98696.91;;;10.22;44.02
73501;BME280;61721;42.206;25.320;2024-01-15T11:50:40;98678.06;;;12.84;38.39
73501;BME280;61721;42.206;25.320;2024-01-15T11:53:16;98677.53;;;12.44;38.50
73501;BME280;61721;42.206;25.320;2024-01-15T11:55:44;98690.09;;;12.88;38.01
73501;BME280;61721;42.206;25.320;2024-01-15T11:58:14;98691.72;;;11.74;38.07
73501;BME280;61721;42.206;25.320;2024-01-15T12:00:45;98697.22;;;12.46;37.36
73501;BME280;61721;42.206;25.320;2024-01-15T12:03:15;98696.66;;;12.66;36.25
73501;BME280;61721;42.206;25.320;2024-01-15T12:05:42;98681.22;;;11.49;38.95
73501;BME280;61721;42.206;25.320;2024-01-15T12:08:10;98685.28;;;15.07;34.32
73501;BME280;61721;42.206;25.320;2024-01-15T12:10:38;98679.75;;;13.66;34.52
73501;BME280;61721;42.206;25.320;2024-01-15T12:13:10;98672.41;;;12.91;35.51
73501;BME280;61721;42.206;25.320;2024-01-15T12:15:39;98662.47;;;12.58;36.12
73501;BME280;61721;42.206;25.320;2024-01-15T12:18:09;98658.88;;;12.36;36.10
73501;BME280;61721;42.206;25.320;2024-01-15T12:20:37;98654.91;;;12.87;36.48
73501;BME280;61721;42.206;25.320;2024-01-15T12:23:05;98657.97;;;11.41;38.43
73501;BME280;61721;42.206;25.320;2024-01-15T12:25:33;98662.00;;;13.68;35.90
73501;BME280;61721;42.206;25.320;2024-01-15T12:28:01;98649.34;;;13.57;34.90
73501;BME280;61721;42.206;25.320;2024-01-15T12:30:29;98634.31;;;15.06;33.11
73501;BME280;61721;42.206;25.320;2024-01-15T12:32:57;98636.41;;;14.74;32.21
73501;BME280;61721;42.206;25.320;2024-01-15T12:35:26;98627.09;;;14.75;32.83
73501;BME280;61721;42.206;25.320;2024-01-15T12:37:54;98630.31;;;14.57;32.68
73501;BME280;61721;42.206;25.320;2024-01-15T12:40:23;98647.47;;;15.04;31.93
73501;BME280;61721;42.206;25.320;2024-01-15T12:42:51;98653.88;;;14.58;31.29
73501;BME280;61721;42.206;25.320;2024-01-15T12:45:18;98648.91;;;13.70;33.85
73501;BME280;61721;42.206;25.320;2024-01-15T12:47:46;98628.03;;;13.27;34.45
73501;BME280;61721;42.206;25.320;2024-01-15T12:50:14;98620.66;;;13.97;34.35
73501;BME280;61721;42.206;25.320;2024-01-15T12:52:43;98614.94;;;13.61;34.13
73501;BME280;61721;42.206;25.320;2024-01-15T12:55:10;98612.69;;;12.07;36.14
73501;BME280;61721;42.206;25.320;2024-01-15T12:57:38;98612.59;;;12.19;38.14
73501;BME280;61721;42.206;25.320;2024-01-15T13:00:06;98607.91;;;14.65;34.27